KLRU Airport Information

Runway Information
Runway 04 Length 7499 ft width 100 ft
Elevation 4436 ft Threshold 0 ft Heading 55
Runway 22 Length 7499 ft Width 100 ft
Elevation 4452 ft Threshold 0 ft Heading 235
Runway 08 Length 6069 ft width 100 ft
Elevation 4437 ft Threshold 0 ft Heading 90
Runway 26 Length 6069 ft Width 100 ft
Elevation 4436 ft Threshold 0 ft Heading 270
Runway 12 Length 7499 ft width 100 ft
Elevation 4456 ft Threshold 0 ft Heading 135
Runway 30 Length 7499 ft Width 100 ft
Elevation 4436 ft Threshold 0 ft Heading 315
Airport Frequencies
Type AWOS Name AWOS 3 Frequency 119.025 MHZ
Type CNTR Name ALBUQUERQU Frequency 128.2 MHZ
Type UNIC Name CTAF/UNICO Frequency 122.7 MHZ
Airport Navaids
Type NDB Name Hawke Frequency 206 KHZ
Airport Weather Information & NOTAM
ADDS - METARS form results

(0233 UTC 05 December 2020)
Data provider http://aviationweather.gov/metar/data/
 
METAR text: KLRU 050215Z AUTO 33004KT 10SM CLR 01/M16 A3021 RMK AO2 T00071162
Conditions at: KLRU (LAS CRUCES INTL , NM, US) observed 0215 UTC 05 December 2020
Temperature: 0.7°C (33°F)
Dewpoint: -16.2°C ( 3°F) [RH = 27%]
Pressure (altimeter): 30.21 inches Hg (1023.1 mb)
Winds: from the NNW (330 degrees) at 5 MPH (4 knots; 2.1 m/s)
Visibility: 10 or more miles (16+ km)
Ceiling: at least 12,000 feet AGL
Clouds: sky clear below 12,000 feet AGL
Weather: automated observation with no human augmentation;
there may or may not be significant weather present at this time

METAR text: KLRU 050155Z AUTO 00000KT 10SM CLR 01/M16 A3020 RMK AO2 T00141161
Conditions at: KLRU (LAS CRUCES INTL , NM, US) observed 0155 UTC 05 December 2020
Temperature: 1.4°C (35°F)
Dewpoint: -16.1°C ( 3°F) [RH = 26%]
Pressure (altimeter): 30.20 inches Hg (1022.8 mb)
Winds: calm
Visibility: 10 or more miles (16+ km)
Ceiling: at least 12,000 feet AGL
Clouds: sky clear below 12,000 feet AGL
Weather: automated observation with no human augmentation;
there may or may not be significant weather present at this time

METAR text: KLRU 050135Z AUTO 31004KT 10SM CLR 04/M15 A3021 RMK AO2 T00411151
Conditions at: KLRU (LAS CRUCES INTL , NM, US) observed 0135 UTC 05 December 2020
Temperature: 4.1°C (39°F)
Dewpoint: -15.1°C ( 5°F) [RH = 23%]
Pressure (altimeter): 30.21 inches Hg (1023.1 mb)
Winds: from the NW (310 degrees) at 5 MPH (4 knots; 2.1 m/s)
Visibility: 10 or more miles (16+ km)
Ceiling: at least 12,000 feet AGL
Clouds: sky clear below 12,000 feet AGL
Weather: automated observation with no human augmentation;
there may or may not be significant weather present at this time

Forecast for: KLRU (LAS CRUCES INTL , NM, US)
Text: KLRU 042332Z 0500/0524 VRB03KT P6SM SKC
Forecast period: 0000 to 1800 UTC 05 December 2020
Forecast type: FROM: standard forecast or significant change
Winds: variable direction winds at 3 MPH (3 knots; 1.5 m/s)
Visibility: 6 or more miles (10+ km)
Clouds: clear skies
Weather: no significant weather forecast for this period
Text: FM051800 32006KT P6SM SKC
Forecast period: 1800 UTC 05 December 2020 to 0000 UTC 06 December 2020
Forecast type: FROM: standard forecast or significant change
Winds: from the NW (320 degrees) at 7 MPH (6 knots; 3.1 m/s)
Visibility: 6 or more miles (10+ km)
Clouds: clear skies
Weather: no significant weather forecast for this period